createdAt,value
2022-09-26T00:02:41.244Z,5.00
2022-09-26T00:05:32.337Z,4.60
2022-09-26T00:08:20.245Z,8.20
2022-09-26T00:11:09.185Z,6.47
2022-09-26T00:13:59.077Z,4.50
2022-09-26T00:16:47.159Z,7.17
2022-09-26T00:19:34.291Z,6.63
2022-09-26T00:22:21.793Z,4.53
2022-09-26T00:25:09.714Z,7.70
2022-09-26T00:27:56.780Z,4.27
2022-09-26T00:35:27.957Z,5.53
2022-09-26T00:38:15.662Z,6.40
2022-09-26T00:41:04.389Z,11.33
2022-09-26T00:43:56.983Z,7.20
2022-09-26T00:46:48.470Z,5.37
2022-09-26T00:49:40.112Z,6.20
2022-09-26T00:52:33.111Z,7.73
2022-09-26T00:55:25.132Z,4.80
2022-09-26T00:58:18.882Z,5.00
2022-09-26T01:01:07.808Z,6.47
2022-09-26T01:03:56.697Z,5.70
2022-09-26T01:06:45.227Z,6.50
2022-09-26T01:09:33.120Z,3.73
2022-09-26T01:12:22.149Z,6.30
2022-09-26T01:30:10.012Z,6.47
2022-09-26T01:33:21.943Z,7.33
2022-09-26T01:36:22.860Z,4.03
2022-09-26T01:39:16.304Z,8.60
2022-09-26T01:42:38.933Z,4.47
2022-09-26T01:45:38.646Z,6.67
2022-09-26T01:48:42.831Z,4.23
2022-09-26T01:51:43.431Z,8.03
2022-09-26T01:54:37.830Z,8.00
2022-09-26T01:57:31.495Z,5.23
2022-09-26T02:00:19.705Z,6.03
2022-09-26T02:03:13.244Z,5.73
2022-09-26T02:06:06.156Z,4.20
2022-09-26T02:09:05.153Z,5.40
2022-09-26T02:11:55.889Z,3.23
2022-09-26T02:14:45.814Z,4.07
2022-09-26T02:17:38.262Z,2.67
2022-09-26T02:20:30.860Z,5.17
2022-09-26T02:23:18.370Z,4.57
2022-09-26T02:26:06.297Z,6.03
2022-09-26T02:28:53.794Z,4.50
2022-09-26T02:31:58.338Z,3.57
2022-09-26T02:34:48.266Z,4.30
2022-09-26T02:37:36.446Z,2.30
2022-09-26T02:40:31.846Z,4.93
2022-09-26T02:43:26.859Z,4.60
2022-09-26T02:46:23.220Z,5.25
2022-09-26T02:49:16.965Z,6.30
2022-09-26T02:52:19.630Z,5.23
2022-09-26T02:55:45.663Z,4.43
2022-09-26T02:58:42.745Z,3.63
2022-09-26T03:01:53.973Z,3.40
2022-09-26T03:04:44.294Z,2.57
2022-09-26T03:07:37.880Z,4.63
2022-09-26T03:10:28.182Z,1.80
2022-09-26T03:13:18.489Z,4.77
2022-09-26T03:16:07.023Z,6.03
2022-09-26T03:19:00.739Z,3.13
2022-09-26T03:21:48.427Z,5.90
2022-09-26T03:24:41.054Z,4.33
2022-09-26T03:27:28.505Z,5.77
2022-09-26T03:30:17.203Z,3.43
2022-09-26T03:33:04.586Z,5.57
2022-09-26T03:35:52.289Z,2.97
2022-09-26T03:38:39.765Z,3.67
2022-09-26T03:41:26.830Z,6.37
2022-09-26T03:44:15.757Z,5.63
2022-09-26T03:47:03.463Z,6.53
2022-09-26T03:49:51.019Z,3.67
2022-09-26T03:52:38.074Z,3.40
2022-09-26T03:55:25.538Z,7.70
2022-09-26T03:58:13.011Z,3.83
2022-09-26T04:01:21.190Z,3.23
2022-09-26T04:04:08.369Z,4.63
2022-09-26T04:06:55.812Z,5.77
2022-09-26T04:09:43.289Z,2.53
2022-09-26T04:12:30.389Z,5.43
2022-09-26T04:15:17.849Z,5.43
2022-09-26T04:18:05.290Z,3.80
2022-09-26T04:21:00.766Z,2.80
2022-09-26T04:23:48.058Z,5.88
2022-09-26T04:26:35.149Z,4.00
2022-09-26T04:29:22.846Z,5.13
2022-09-26T04:32:10.525Z,4.03
2022-09-26T04:35:27.274Z,6.53
2022-09-26T04:38:15.560Z,9.33
2022-09-26T04:41:04.780Z,5.73
2022-09-26T04:43:54.481Z,5.77
2022-09-26T04:46:42.137Z,5.03
2022-09-26T04:49:29.782Z,5.57
2022-09-26T04:52:17.342Z,6.07
2022-09-26T04:55:05.278Z,4.63
2022-09-26T04:57:52.890Z,5.77
2022-09-26T05:00:49.672Z,4.37
2022-09-26T05:03:37.799Z,3.87
2022-09-26T05:06:25.234Z,3.30
2022-09-26T05:09:12.429Z,6.80
2022-09-26T05:11:59.690Z,3.23
2022-09-26T05:14:46.894Z,6.87
2022-09-26T05:17:36.061Z,4.17
2022-09-26T05:20:24.511Z,2.33
2022-09-26T05:23:12.031Z,2.07
2022-09-26T05:26:18.238Z,3.60
2022-09-26T05:29:14.467Z,8.23
2022-09-26T05:32:02.176Z,4.60
2022-09-26T05:34:49.340Z,7.80
2022-09-26T05:37:36.777Z,4.33
2022-09-26T05:40:43.197Z,6.87
2022-09-26T05:46:18.484Z,5.47
2022-09-26T05:49:06.641Z,4.20
2022-09-26T05:51:54.213Z,7.43
2022-09-26T05:54:41.293Z,5.57
2022-09-26T05:57:28.736Z,5.33
2022-09-26T06:00:16.209Z,6.40
2022-09-26T06:03:03.694Z,4.97
2022-09-26T06:05:51.965Z,5.33
2022-09-26T06:08:40.704Z,3.77
2022-09-26T06:11:30.643Z,5.33
2022-09-26T06:14:18.330Z,6.47
2022-09-26T06:17:05.395Z,4.60
2022-09-26T06:19:52.618Z,4.43
2022-09-26T06:22:41.420Z,5.70
2022-09-26T06:25:29.568Z,4.67
2022-09-26T06:28:18.449Z,4.43
2022-09-26T06:31:23.060Z,5.50
2022-09-26T06:34:12.764Z,6.97
2022-09-26T06:36:59.980Z,5.17
2022-09-26T06:39:47.147Z,9.03
2022-09-26T06:42:38.138Z,4.57
2022-09-26T06:45:26.532Z,4.77
2022-09-26T06:48:13.667Z,5.47
2022-09-26T06:51:01.143Z,5.07
2022-09-26T06:53:48.349Z,4.87
2022-09-26T06:56:35.566Z,6.80
2022-09-26T06:59:26.250Z,8.03
2022-09-26T07:02:16.945Z,6.43
2022-09-26T07:05:05.544Z,5.90
2022-09-26T07:07:55.009Z,5.03
2022-09-26T07:10:42.721Z,9.63
2022-09-26T07:13:29.943Z,7.83
2022-09-26T07:16:17.268Z,5.83
2022-09-26T07:19:04.806Z,8.50
2022-09-26T07:21:52.108Z,4.67
2022-09-26T07:24:39.816Z,6.03
2022-09-26T07:27:27.350Z,5.97
2022-09-26T07:30:14.927Z,5.30
2022-09-26T07:33:03.771Z,5.13
2022-09-26T07:35:53.683Z,7.87
2022-09-26T07:38:40.954Z,5.53
2022-09-26T07:41:31.595Z,10.27
2022-09-26T07:45:09.305Z,9.50
2022-09-26T07:47:45.376Z,4.33
2022-09-26T07:50:33.084Z,8.63
2022-09-26T07:53:23.594Z,6.90
2022-09-26T07:56:11.526Z,7.70
2022-09-26T07:58:59.190Z,5.00
2022-09-26T08:01:47.137Z,7.10
2022-09-26T08:04:34.853Z,5.33
2022-09-26T08:07:22.967Z,18.30
2022-09-26T08:10:22.024Z,7.13
2022-09-26T08:13:09.828Z,5.40
2022-09-26T08:16:03.912Z,6.83
2022-09-26T08:18:52.537Z,6.63
2022-09-26T08:21:40.034Z,8.70
2022-09-26T08:24:27.926Z,8.03
2022-09-26T08:27:16.573Z,5.93
2022-09-26T08:30:04.493Z,8.30
2022-09-26T08:32:59.081Z,7.30
2022-09-26T08:35:48.512Z,7.87
2022-09-26T08:38:36.778Z,8.07
2022-09-26T08:41:41.513Z,8.83
2022-09-26T08:44:42.074Z,8.73
2022-09-26T08:47:47.236Z,7.60
2022-09-26T08:51:12.290Z,7.53
2022-09-26T08:54:15.996Z,5.77
2022-09-26T08:57:15.459Z,13.20
2022-09-26T09:00:27.502Z,5.40
2022-09-26T09:03:34.637Z,6.70
2022-09-26T09:06:21.916Z,6.03
2022-09-26T09:09:16.001Z,5.70
2022-09-26T09:12:28.917Z,7.20
2022-09-26T09:15:43.275Z,8.37
2022-09-26T09:18:34.009Z,8.60
2022-09-26T09:22:01.152Z,6.10
2022-09-26T09:28:08.301Z,7.07
2022-09-26T09:31:10.479Z,5.17
2022-09-26T09:34:02.256Z,4.80
2022-09-26T09:36:56.868Z,9.50
2022-09-26T09:39:47.672Z,6.57
2022-09-26T09:42:48.076Z,10.07
2022-09-26T09:45:49.145Z,8.53
2022-09-26T09:48:36.993Z,8.43
2022-09-26T09:52:12.572Z,8.57
2022-09-26T09:55:25.495Z,6.50
2022-09-26T09:58:25.699Z,8.97
2022-09-26T10:01:25.992Z,7.57
2022-09-26T10:04:28.596Z,5.87
2022-09-26T10:07:16.287Z,5.50
2022-09-26T10:10:05.251Z,6.27
2022-09-26T10:12:52.733Z,6.53
2022-09-26T10:15:56.161Z,4.53
2022-09-26T10:19:06.384Z,9.33
2022-09-26T10:21:53.949Z,8.33
2022-09-26T10:24:41.535Z,8.37
2022-09-26T10:27:40.183Z,3.70
2022-09-26T10:30:32.264Z,5.03
2022-09-26T10:33:34.347Z,4.77
2022-09-26T10:39:49.959Z,6.87
2022-09-26T10:42:38.180Z,5.13
2022-09-26T10:45:29.406Z,2.83
2022-09-26T10:48:22.170Z,3.67
2022-09-26T10:51:11.380Z,1.47
2022-09-26T10:54:08.178Z,3.60
2022-09-26T10:56:59.361Z,3.90
2022-09-26T10:59:57.253Z,2.50
2022-09-26T11:02:47.164Z,2.67
2022-09-26T11:05:59.836Z,2.47
2022-09-26T11:08:52.119Z,2.80
2022-09-26T11:11:42.279Z,4.40
2022-09-26T11:14:30.110Z,4.53
2022-09-26T11:17:19.179Z,3.43
2022-09-26T11:20:09.491Z,3.67
2022-09-26T11:23:23.104Z,5.80
2022-09-26T11:26:20.049Z,2.60
2022-09-26T11:29:08.113Z,4.37
2022-09-26T11:32:00.144Z,5.50
2022-09-26T11:34:47.895Z,4.10
2022-09-26T11:37:45.262Z,3.97
2022-09-26T12:33:10.358Z,3.77
2022-09-26T12:36:28.462Z,5.53
2022-09-26T12:39:19.109Z,5.97
2022-09-26T12:42:12.659Z,4.63
2022-09-26T12:45:38.992Z,4.77
2022-09-26T12:48:42.348Z,5.07
2022-09-26T12:51:43.870Z,7.23
2022-09-26T12:55:13.187Z,10.07
2022-09-26T12:58:02.250Z,11.20
2022-09-26T13:01:00.091Z,7.83
2022-09-26T13:04:06.296Z,10.97
2022-09-26T13:07:26.480Z,12.70
2022-09-26T13:10:28.740Z,8.53
2022-09-26T13:13:37.717Z,9.17
2022-09-26T13:16:34.287Z,8.93
2022-09-26T13:19:34.752Z,8.67
2022-09-26T13:22:41.155Z,12.27
2022-09-26T13:25:39.177Z,13.23
2022-09-26T13:29:23.582Z,14.97
2022-09-26T13:32:14.125Z,12.73
2022-09-26T13:35:21.334Z,8.07
2022-09-26T13:38:22.485Z,11.47
2022-09-26T13:41:22.131Z,12.70
2022-09-26T13:44:34.116Z,11.63
2022-09-26T13:47:39.288Z,13.70
2022-09-26T13:50:48.827Z,11.67
2022-09-26T13:54:03.240Z,12.10
2022-09-26T13:56:51.025Z,11.40
2022-09-26T13:59:52.027Z,14.00
2022-09-26T14:02:42.558Z,9.03
2022-09-26T14:05:49.827Z,15.10
2022-09-26T14:09:16.297Z,12.47
2022-09-26T14:12:20.235Z,15.27
2022-09-26T14:15:17.067Z,14.57
2022-09-26T14:18:15.609Z,16.37
2022-09-26T14:21:33.031Z,20.43
2022-09-26T14:24:28.184Z,14.30
2022-09-26T14:27:15.701Z,16.83
2022-09-26T14:30:24.921Z,13.90
2022-09-26T14:33:14.933Z,18.37
2022-09-26T14:36:30.974Z,13.33
2022-09-26T14:39:44.704Z,12.95
2022-09-26T14:42:49.906Z,11.13
2022-09-26T14:45:38.140Z,10.00
2022-09-26T14:48:39.443Z,18.33
2022-09-26T14:51:31.041Z,13.80
2022-09-26T14:54:23.995Z,11.27
2022-09-26T14:57:27.243Z,10.17
2022-09-26T15:00:45.595Z,12.40
2022-09-26T15:03:34.741Z,16.50
2022-09-26T15:06:23.263Z,16.03
2022-09-26T15:09:18.026Z,11.70
2022-09-26T15:12:16.571Z,14.23
2022-09-26T15:18:56.768Z,9.53
2022-09-26T15:21:50.839Z,18.40
2022-09-26T15:24:42.204Z,11.20
2022-09-26T15:27:30.159Z,10.17
2022-09-26T15:30:28.405Z,10.30
2022-09-26T15:33:24.391Z,12.03
2022-09-26T15:36:21.316Z,7.63
2022-09-26T15:39:33.336Z,11.27
2022-09-26T15:42:58.413Z,10.47
2022-09-26T15:45:46.755Z,15.93
2022-09-26T15:48:44.481Z,10.37
2022-09-26T15:51:46.659Z,8.97
2022-09-26T15:54:34.882Z,13.07
2022-09-26T15:57:22.705Z,7.10
2022-09-26T16:00:26.930Z,11.27
2022-09-26T16:24:34.406Z,12.27
2022-09-26T16:27:25.529Z,12.17
2022-09-26T16:30:28.048Z,10.60
2022-09-26T16:33:32.096Z,11.07
2022-09-26T16:36:21.334Z,11.20
2022-09-26T16:39:19.523Z,8.03
2022-09-26T16:42:16.785Z,9.17
2022-09-26T16:45:06.104Z,10.43
2022-09-26T16:47:53.992Z,11.60
2022-09-26T16:54:18.833Z,11.53
2022-09-26T16:57:15.540Z,14.67
2022-09-26T17:00:43.014Z,9.50
2022-09-26T17:03:32.385Z,12.70
2022-09-26T17:06:22.666Z,9.23
2022-09-26T17:09:20.091Z,16.50
2022-09-26T17:49:43.152Z,12.17
2022-09-26T17:52:33.333Z,10.83
2022-09-26T17:55:21.885Z,12.97
2022-09-26T17:58:18.209Z,10.00
2022-09-26T18:01:09.349Z,10.63
2022-09-26T18:04:01.025Z,12.47
2022-09-26T18:06:54.235Z,13.30
2022-09-26T18:09:45.039Z,8.17
2022-09-26T18:12:33.500Z,7.40
2022-09-26T18:15:24.126Z,9.00
2022-09-26T18:18:31.917Z,11.93
2022-09-26T18:21:20.054Z,11.57
2022-09-26T18:24:19.217Z,9.97
2022-09-26T18:27:10.948Z,10.17
2022-09-26T18:30:01.551Z,12.13
2022-09-26T18:32:55.253Z,9.60
2022-09-26T18:35:45.638Z,7.10
2022-09-26T18:38:35.467Z,8.30
2022-09-26T18:41:30.940Z,5.07
2022-09-26T18:44:28.591Z,10.30
2022-09-26T18:47:18.351Z,8.13
2022-09-26T18:50:07.660Z,12.77
2022-09-26T18:53:26.954Z,6.37
2022-09-26T18:56:39.785Z,5.30
2022-09-26T19:00:01.746Z,9.17
2022-09-26T19:03:05.930Z,10.87
2022-09-26T19:06:18.116Z,10.57
2022-09-26T19:09:49.549Z,5.50
2022-09-26T19:28:55.523Z,12.27
2022-09-26T19:35:55.670Z,10.70
2022-09-26T19:38:59.480Z,8.63
2022-09-26T19:41:54.195Z,14.23
2022-09-26T19:45:09.938Z,11.10
2022-09-26T19:48:08.963Z,25.15
2022-09-26T19:50:58.346Z,10.87
2022-09-26T19:54:19.129Z,6.60
2022-09-26T19:57:29.541Z,7.23
2022-09-26T20:00:20.465Z,10.23
2022-09-26T20:03:41.023Z,12.33
2022-09-26T20:06:32.566Z,10.20
2022-09-26T20:09:25.901Z,8.73
2022-09-26T20:12:13.934Z,6.67
2022-09-26T20:15:01.625Z,8.37
2022-09-26T20:17:54.064Z,10.20
2022-09-26T20:21:14.471Z,11.97
2022-09-26T20:24:24.145Z,9.00
2022-09-26T20:31:33.193Z,12.77
2022-09-26T20:59:15.460Z,6.77
2022-09-26T21:04:38.826Z,8.23
2022-09-26T21:12:36.544Z,6.73
2022-09-26T21:15:19.476Z,5.80
2022-09-26T21:22:45.290Z,6.20
2022-09-26T21:25:32.942Z,8.38
2022-09-26T21:28:29.113Z,4.30
2022-09-26T21:31:27.160Z,6.27
2022-09-26T21:34:36.390Z,7.47
2022-09-26T21:37:26.831Z,7.37
2022-09-26T21:40:16.912Z,7.17
2022-09-26T21:43:11.018Z,4.27
2022-09-26T21:46:03.022Z,5.60
2022-09-26T21:48:55.040Z,5.30
2022-09-26T21:51:51.655Z,4.23
2022-09-26T21:54:50.461Z,8.23
2022-09-26T21:57:52.532Z,5.60
2022-09-26T22:00:45.379Z,6.77
2022-09-26T22:03:33.318Z,2.90
2022-09-26T22:06:22.119Z,6.17
